createdAt,value
2022-09-14T00:02:11.126Z,92.81
2022-09-14T00:07:13.586Z,93.00
2022-09-14T00:12:16.218Z,93.18
2022-09-14T00:17:18.803Z,93.67
2022-09-14T00:22:21.206Z,93.82
2022-09-14T00:27:23.634Z,94.23
2022-09-14T00:32:26.141Z,94.47
2022-09-14T00:37:28.617Z,94.23
2022-09-14T00:42:31.212Z,94.42
2022-09-14T00:47:34.416Z,94.40
2022-09-14T00:52:38.243Z,95.51
2022-09-14T00:57:43.609Z,95.26
2022-09-14T01:02:46.121Z,94.96
2022-09-14T01:08:48.204Z,95.28
2022-09-14T01:13:53.605Z,95.12
2022-09-14T01:18:58.641Z,94.97
2022-09-14T01:24:08.380Z,94.52
2022-09-14T01:29:13.426Z,94.91
2022-09-14T01:34:20.061Z,94.57
2022-09-14T01:39:23.013Z,94.54
2022-09-14T01:44:27.505Z,94.29
2022-09-14T01:49:32.117Z,94.64
2022-09-14T01:54:37.755Z,95.03
2022-09-14T01:59:43.451Z,94.86
2022-09-14T02:04:49.285Z,95.38
2022-09-14T02:09:52.909Z,95.18
2022-09-14T02:14:55.440Z,95.44
2022-09-14T02:20:00.636Z,95.30
2022-09-14T02:25:03.430Z,95.36
2022-09-14T02:30:06.293Z,95.91
2022-09-14T02:35:10.688Z,95.83
2022-09-14T02:40:13.168Z,96.02
2022-09-14T02:45:15.992Z,96.64
2022-09-14T02:50:23.625Z,96.50
2022-09-14T02:55:29.371Z,96.02
2022-09-14T03:00:33.816Z,95.65
2022-09-14T03:05:36.477Z,95.80
2022-09-14T03:10:41.477Z,96.45
2022-09-14T03:15:43.958Z,96.49
2022-09-14T03:20:46.447Z,97.18
2022-09-14T03:25:48.836Z,97.16
2022-09-14T03:30:51.275Z,97.31
2022-09-14T03:35:53.719Z,97.15
2022-09-14T03:40:57.991Z,97.90
2022-09-14T03:46:05.234Z,98.25
2022-09-14T03:51:09.011Z,98.03
2022-09-14T03:56:15.360Z,97.60
2022-09-14T04:01:19.365Z,98.06
2022-09-14T04:06:22.132Z,98.21
2022-09-14T04:11:25.350Z,98.34
2022-09-14T04:16:28.309Z,99.02
2022-09-14T04:21:30.881Z,98.79
2022-09-14T04:26:34.028Z,98.35
2022-09-14T04:31:36.988Z,98.80
2022-09-14T04:37:31.068Z,99.37
2022-09-14T04:42:33.532Z,99.99
2022-09-14T04:47:35.932Z,99.97
2022-09-14T04:52:38.421Z,100.00
2022-09-14T04:57:40.840Z,99.63
2022-09-14T05:02:43.360Z,98.81
2022-09-14T05:07:46.106Z,98.62
2022-09-14T05:12:48.592Z,97.93
2022-09-14T05:17:51.013Z,96.80
2022-09-14T05:22:53.421Z,96.76
2022-09-14T05:27:55.868Z,96.57
2022-09-14T05:38:05.289Z,95.50
2022-09-14T05:43:08.129Z,94.54
2022-09-14T05:48:10.521Z,94.52
2022-09-14T05:53:12.985Z,94.50
2022-09-14T05:58:15.385Z,93.55
2022-09-14T06:03:17.822Z,92.65
2022-09-14T06:08:20.363Z,92.17
2022-09-14T06:13:24.776Z,91.81
2022-09-14T06:18:27.367Z,91.35
2022-09-14T06:23:30.826Z,90.10
2022-09-14T06:28:34.455Z,89.96
2022-09-14T06:33:37.321Z,89.06
2022-09-14T06:38:40.307Z,87.86
2022-09-14T06:43:43.082Z,87.03
2022-09-14T06:48:48.687Z,86.18
2022-09-14T06:53:51.541Z,82.40
2022-09-14T06:58:54.379Z,80.41
2022-09-14T07:03:57.239Z,80.21
2022-09-14T07:09:03.320Z,79.98
2022-09-14T07:14:06.893Z,78.72
2022-09-14T07:19:11.358Z,77.40
2022-09-14T07:24:14.960Z,77.27
2022-09-14T07:29:19.810Z,76.60
2022-09-14T07:34:23.872Z,74.26
2022-09-14T07:39:26.364Z,72.68
2022-09-14T07:44:28.886Z,72.15
2022-09-14T07:49:31.421Z,71.13
2022-09-14T07:54:34.623Z,70.56
2022-09-14T07:59:37.738Z,70.86
2022-09-14T08:04:42.461Z,68.54
2022-09-14T08:09:45.226Z,66.92
2022-09-14T08:14:47.759Z,66.98
2022-09-14T08:19:51.482Z,64.69
2022-09-14T08:24:53.916Z,64.91
2022-09-14T08:29:56.366Z,64.92
2022-09-14T08:34:58.791Z,64.11
2022-09-14T08:40:01.566Z,62.65
2022-09-14T08:45:09.507Z,61.82
2022-09-14T08:50:21.928Z,60.30
2022-09-14T08:55:33.466Z,60.29
2022-09-14T09:00:42.408Z,61.19
2022-09-14T09:05:51.766Z,60.53
2022-09-14T09:10:54.944Z,60.65
2022-09-14T09:16:01.143Z,60.05
2022-09-14T09:21:09.605Z,59.34
2022-09-14T09:26:16.755Z,58.11
2022-09-14T09:31:22.775Z,56.20
2022-09-14T09:36:26.029Z,55.31
2022-09-14T09:41:31.378Z,56.79
2022-09-14T09:46:34.948Z,57.05
2022-09-14T09:51:37.571Z,55.01
2022-09-14T09:56:43.022Z,53.74
2022-09-14T10:01:45.601Z,52.79
2022-09-14T10:06:50.054Z,52.31
2022-09-14T10:11:55.379Z,52.97
2022-09-14T10:17:15.799Z,51.42
2022-09-14T10:22:27.000Z,50.42
2022-09-14T10:27:37.586Z,49.46
2022-09-14T10:32:43.424Z,49.01
2022-09-14T10:37:46.138Z,49.31
2022-09-14T10:42:58.071Z,48.23
2022-09-14T10:48:03.517Z,48.47
2022-09-14T10:53:13.988Z,49.48
2022-09-14T10:58:21.300Z,50.45
2022-09-14T11:03:27.481Z,51.26
2022-09-14T11:08:34.934Z,51.83
2022-09-14T11:13:37.324Z,53.79
2022-09-14T11:18:42.659Z,54.86
2022-09-14T11:23:47.037Z,55.44
2022-09-14T11:28:57.727Z,56.31
2022-09-14T11:34:00.219Z,57.54
2022-09-14T11:39:07.524Z,58.20
2022-09-14T11:44:10.938Z,57.23
2022-09-14T11:49:18.698Z,56.28
2022-09-14T11:54:21.958Z,54.79
2022-09-14T11:59:27.300Z,54.25
2022-09-14T12:04:29.708Z,53.53
2022-09-14T12:09:38.948Z,51.91
2022-09-14T12:14:44.435Z,50.62
2022-09-14T12:19:48.696Z,51.41
2022-09-14T12:24:54.025Z,50.24
2022-09-14T12:29:56.455Z,49.66
2022-09-14T12:35:18.783Z,50.18
2022-09-14T12:40:21.185Z,51.12
2022-09-14T12:45:26.684Z,50.49
2022-09-14T12:50:33.113Z,49.12
2022-09-14T12:55:37.236Z,47.82
2022-09-14T13:00:42.599Z,47.13
2022-09-14T13:05:45.402Z,48.78
2022-09-14T13:10:49.483Z,48.50
2022-09-14T13:15:53.803Z,47.80
2022-09-14T13:20:58.867Z,47.11
2022-09-14T13:26:08.038Z,46.10
2022-09-14T13:31:13.089Z,46.83
2022-09-14T13:36:17.675Z,47.09
2022-09-14T13:41:22.861Z,47.44
2022-09-14T13:46:27.015Z,48.28
2022-09-14T13:51:29.745Z,48.95
2022-09-14T13:56:34.096Z,48.95
2022-09-14T14:01:40.797Z,49.90
2022-09-14T14:06:43.254Z,48.27
2022-09-14T14:11:51.883Z,47.63
2022-09-14T14:16:57.310Z,47.47
2022-09-14T14:22:02.706Z,48.33
2022-09-14T14:27:05.302Z,48.64
2022-09-14T14:32:08.599Z,48.70
2022-09-14T14:37:11.428Z,49.70
2022-09-14T14:42:15.438Z,51.09
2022-09-14T14:47:17.823Z,52.15
2022-09-14T14:52:20.310Z,52.90
2022-09-14T14:57:22.695Z,53.77
2022-09-14T15:02:26.958Z,54.71
2022-09-14T15:07:29.662Z,55.05
2022-09-14T15:12:32.238Z,55.07
2022-09-14T15:17:34.644Z,55.94
2022-09-14T15:22:37.425Z,56.28
2022-09-14T15:27:40.353Z,56.41
2022-09-14T15:32:42.817Z,56.76
2022-09-14T15:37:46.664Z,57.29
2022-09-14T15:42:49.177Z,57.57
2022-09-14T15:47:51.557Z,57.49
2022-09-14T15:52:59.175Z,57.87
2022-09-14T15:58:04.321Z,58.07
2022-09-14T16:03:06.737Z,58.53
2022-09-14T16:08:09.327Z,58.99
2022-09-14T16:13:11.903Z,59.29
2022-09-14T16:18:14.389Z,59.85
2022-09-14T16:23:16.799Z,60.21
2022-09-14T16:28:19.235Z,60.60
2022-09-14T16:33:21.633Z,60.88
2022-09-14T16:38:24.841Z,61.43
2022-09-14T16:43:29.997Z,62.08
2022-09-14T16:48:34.467Z,62.85
2022-09-14T16:53:38.252Z,63.43
2022-09-14T16:58:40.922Z,64.03
2022-09-14T17:03:44.171Z,64.42
2022-09-14T17:08:47.721Z,64.75
2022-09-14T17:13:50.424Z,65.15
2022-09-14T17:18:54.209Z,65.78
2022-09-14T17:23:57.106Z,66.16
2022-09-14T17:29:00.069Z,67.03
2022-09-14T17:34:03.590Z,67.82
2022-09-14T17:39:11.643Z,68.50
2022-09-14T17:44:15.891Z,68.59
2022-09-14T17:49:18.557Z,68.96
2022-09-14T17:54:21.104Z,68.97
2022-09-14T17:59:24.397Z,69.33
2022-09-14T18:04:26.965Z,69.33
2022-09-14T18:09:29.427Z,69.37
2022-09-14T18:14:33.869Z,69.69
2022-09-14T18:19:36.324Z,69.51
2022-09-14T18:24:38.718Z,69.85
2022-09-14T18:29:42.128Z,69.46
2022-09-14T18:34:44.571Z,69.67
2022-09-14T18:39:47.062Z,69.97
2022-09-14T18:44:53.847Z,69.92
2022-09-14T18:49:56.374Z,70.04
2022-09-14T18:54:58.802Z,70.19
2022-09-14T19:00:01.363Z,70.19
2022-09-14T19:05:03.887Z,70.34
2022-09-14T19:10:10.991Z,70.51
2022-09-14T19:15:14.244Z,70.24
2022-09-14T19:20:19.197Z,70.73
2022-09-14T19:25:21.867Z,71.07
2022-09-14T19:30:24.289Z,71.72
2022-09-14T19:35:27.186Z,72.16
2022-09-14T19:40:30.015Z,72.27
2022-09-14T19:45:34.909Z,72.38
2022-09-14T19:50:37.335Z,72.82
2022-09-14T19:55:39.747Z,73.11
2022-09-14T20:00:42.186Z,73.13
2022-09-14T20:05:44.667Z,73.37
2022-09-14T20:10:47.123Z,73.40
2022-09-14T20:15:49.970Z,73.54
2022-09-14T20:20:52.427Z,73.68
2022-09-14T20:25:54.826Z,73.51
2022-09-14T20:30:58.926Z,73.38
2022-09-14T20:36:04.538Z,73.72
2022-09-14T20:41:08.146Z,74.07
2022-09-14T20:46:12.018Z,73.90
2022-09-14T20:51:19.861Z,74.04
2022-09-14T20:56:24.833Z,73.92
2022-09-14T21:01:28.731Z,73.87
2022-09-14T21:06:31.540Z,73.94
2022-09-14T21:11:33.996Z,73.92
2022-09-14T21:16:37.970Z,74.15
2022-09-14T21:21:41.132Z,74.28
2022-09-14T21:26:44.012Z,74.15
2022-09-14T21:31:46.703Z,73.83
2022-09-14T21:36:50.802Z,73.60
2022-09-14T21:41:59.439Z,73.87
2022-09-14T21:47:02.468Z,73.61
2022-09-14T21:52:05.142Z,73.62
2022-09-14T21:57:07.583Z,74.05
2022-09-14T22:02:10.127Z,73.94
2022-09-14T22:07:12.611Z,74.30
2022-09-14T22:12:15.935Z,73.91
2022-09-14T22:17:18.392Z,73.91
2022-09-14T22:28:44.890Z,74.22
2022-09-14T22:33:47.768Z,74.16
2022-09-14T22:38:50.191Z,74.61
2022-09-14T22:43:53.207Z,75.03
2022-09-14T22:48:55.958Z,74.68
2022-09-14T22:53:58.478Z,74.75
2022-09-14T22:59:01.736Z,74.64
2022-09-14T23:04:05.523Z,74.86
2022-09-14T23:09:08.904Z,75.19
2022-09-14T23:14:14.333Z,75.53
2022-09-14T23:19:18.734Z,75.33
2022-09-14T23:24:21.188Z,75.23
2022-09-14T23:29:23.648Z,75.27
2022-09-14T23:34:26.114Z,75.21
2022-09-14T23:39:28.980Z,75.73
2022-09-14T23:44:31.564Z,75.74
2022-09-14T23:49:34.017Z,76.01
2022-09-14T23:54:36.403Z,76.23
2022-09-14T23:59:38.829Z,76.17
